Medina, Washington
Current Conditions -  °F | °C
As of 9:53 AM on Saturday 25 Oct 2014 (Local Time) from KBFI Reporting Station
Broken Clouds Broken Clouds  
Wind Chill: 55°   Ceiling: 9000
Heat Index: 55°   Visibility: 10mi
Dew Point: 49°   Wind: 5mph
Humidity: 80%   Direction: 270°W
Pressure: 29.5"   Gusts: NA
Location:  47.62°N, 122.23°W
Report Text: KBFI 251653Z 27004KT 10SM SCT030 BKN090 13/09 A2950 RMK AO2 RAE35 SLP990 P0000 T01280094
Loading
Personal Weather Stations






























Interactive Weather Map
Tropical Storm Tracking
New forecast layout! Learn more

10-Day Weather Forecast

Advertisements
Track Severe Weather on mobile